Pagina principale
METAR-TAF:

METAR-TAF

Aeroporti :

Alpnach, Svizzera

latitudine: 46-56-19N, longitudine: 8-17-03E, altezza: 440 m

Osservazione

Il bollettino è stato emesso 19 minuti fa, alle 20:50 UTC
Vento 3 kt da sud/sud-ovest, variando fra sud/sud-est e ovest
Temperature 11°C
Umidità 54%
Pressione 1013 hPa
Visibilità 10 km o più

METAR: LSMA 212050Z AUTO 21003KT 150V270 9999NDV NCD 11/02 Q1013 RMK

Ora: 23:09 (21:09 UTC)


TAF: mancante

Osservazioni e previsioni meteorologiche di più di 4000 aeroporti (messaggi METAR e TAF).

Le stazioni disponibili sono rappresentate dai dischi gialli e rossi sulla carta.

Puntare il mouse per vedere il nome della stazione.

Clicca sopra per visualizzare le osservazioni e previsioni meteorologiche.

Per cambiare la mappa : fare clic sui pulsanti verdi con una croce nera per ingrandire, il pulsante verde con un trattino per diminuire, o sulla freccia verde per le mappe adiacenti.


METAR-TAF: